createdAt,value
2018-12-19T00:01:48.420Z,2.00
2018-12-19T00:04:17.678Z,1.90
2018-12-19T00:06:46.723Z,1.90
2018-12-19T00:09:15.578Z,1.90
2018-12-19T00:11:44.925Z,1.80
2018-12-19T00:14:13.829Z,1.80
2018-12-19T00:16:42.668Z,1.80
2018-12-19T00:19:11.506Z,1.80
2018-12-19T00:21:40.353Z,1.80
2018-12-19T00:24:09.415Z,1.80
2018-12-19T00:26:38.233Z,1.80
2018-12-19T00:29:07.711Z,1.80
2018-12-19T00:31:36.617Z,1.70
2018-12-19T00:34:06.009Z,1.70
2018-12-19T00:36:35.045Z,1.80
2018-12-19T00:39:09.490Z,1.80
2018-12-19T00:41:37.064Z,1.80
2018-12-19T00:44:05.873Z,1.80
2018-12-19T00:46:34.964Z,2.00
2018-12-19T00:49:03.904Z,2.10
2018-12-19T00:51:32.845Z,2.20
2018-12-19T00:54:01.689Z,2.30
2018-12-19T00:56:30.777Z,2.30
2018-12-19T00:59:00.741Z,2.50
2018-12-19T01:01:29.667Z,2.80
2018-12-19T01:03:58.733Z,3.00
2018-12-19T01:06:27.589Z,3.10
2018-12-19T01:08:56.410Z,3.20
2018-12-19T01:11:25.340Z,3.20
2018-12-19T01:13:54.105Z,3.50
2018-12-19T01:16:22.971Z,3.80
2018-12-19T01:18:52.075Z,3.90
2018-12-19T01:21:20.890Z,3.90
2018-12-19T01:23:49.749Z,3.80
2018-12-19T01:26:18.656Z,3.90
2018-12-19T01:28:47.525Z,3.80
2018-12-19T01:31:16.360Z,3.70
2018-12-19T01:33:45.730Z,3.70
2018-12-19T01:36:14.518Z,3.70
2018-12-19T01:38:43.637Z,3.70
2018-12-19T01:41:12.454Z,3.70
2018-12-19T01:43:41.373Z,3.70
2018-12-19T01:46:10.209Z,3.70
2018-12-19T01:48:39.300Z,3.70
2018-12-19T01:51:08.105Z,3.60
2018-12-19T01:53:36.910Z,3.60
2018-12-19T01:56:05.821Z,3.70
2018-12-19T01:58:34.612Z,3.70
2018-12-19T02:01:03.681Z,3.70
2018-12-19T02:03:32.717Z,3.70
2018-12-19T02:06:01.997Z,3.80
2018-12-19T02:08:30.793Z,3.80
2018-12-19T02:10:59.667Z,3.90
2018-12-19T02:13:28.605Z,3.90
2018-12-19T02:15:57.583Z,3.90
2018-12-19T02:18:26.381Z,3.90
2018-12-19T02:20:56.032Z,3.90
2018-12-19T02:23:24.889Z,3.90
2018-12-19T02:25:54.578Z,3.90
2018-12-19T02:28:24.587Z,3.80
2018-12-19T02:30:53.432Z,3.70
2018-12-19T02:33:22.288Z,3.50
2018-12-19T02:35:51.095Z,3.10
2018-12-19T02:38:19.905Z,2.90
2018-12-19T02:40:48.793Z,2.80
2018-12-19T02:43:17.735Z,2.60
2018-12-19T02:45:46.532Z,2.40
2018-12-19T02:48:15.618Z,2.30
2018-12-19T02:50:44.403Z,2.30
2018-12-19T02:53:13.232Z,2.20
2018-12-19T02:55:42.261Z,2.30
2018-12-19T02:58:11.084Z,2.40
2018-12-19T03:00:39.902Z,2.30
2018-12-19T03:03:08.982Z,2.30
2018-12-19T03:05:37.856Z,2.40
2018-12-19T03:08:06.652Z,2.50
2018-12-19T03:10:35.453Z,2.50
2018-12-19T03:13:04.302Z,2.50
2018-12-19T03:15:34.173Z,2.60
2018-12-19T03:18:03.057Z,2.60
2018-12-19T03:20:31.869Z,2.70
2018-12-19T03:23:01.210Z,2.70
2018-12-19T03:25:30.085Z,2.80
2018-12-19T03:27:58.878Z,2.80
2018-12-19T03:30:27.802Z,2.90
2018-12-19T03:32:56.913Z,2.90
2018-12-19T03:35:27.769Z,2.90
2018-12-19T03:37:56.828Z,2.90
2018-12-19T03:40:26.148Z,2.90
2018-12-19T03:42:54.937Z,3.00
2018-12-19T03:45:23.956Z,2.90
2018-12-19T03:47:52.727Z,2.90
2018-12-19T03:50:22.101Z,2.90
2018-12-19T03:52:51.250Z,3.00
2018-12-19T03:55:21.265Z,3.00
2018-12-19T03:57:50.639Z,3.00
2018-12-19T04:00:19.494Z,3.10
2018-12-19T04:02:48.902Z,3.10
2018-12-19T04:05:18.250Z,3.00
2018-12-19T04:07:47.046Z,3.10
2018-12-19T04:10:16.126Z,3.10
2018-12-19T04:12:44.913Z,3.00
2018-12-19T04:15:14.686Z,3.00
2018-12-19T04:17:43.498Z,3.00
2018-12-19T04:20:12.861Z,3.00
2018-12-19T04:22:42.277Z,3.00
2018-12-19T04:25:11.166Z,3.00
2018-12-19T04:27:40.037Z,3.00
2018-12-19T04:30:08.883Z,2.90
2018-12-19T04:32:38.388Z,2.90
2018-12-19T04:35:07.240Z,3.00
2018-12-19T04:37:36.151Z,3.00
2018-12-19T04:40:06.051Z,3.00
2018-12-19T04:42:35.064Z,3.00
2018-12-19T04:45:04.554Z,2.90
2018-12-19T04:47:33.464Z,2.90
2018-12-19T04:50:02.348Z,2.90
2018-12-19T04:52:31.150Z,2.90
2018-12-19T04:54:59.960Z,2.90
2018-12-19T04:57:28.773Z,2.90
2018-12-19T04:59:57.823Z,2.90
2018-12-19T05:02:26.635Z,2.90
2018-12-19T05:04:55.882Z,2.90
2018-12-19T05:07:24.895Z,2.90
2018-12-19T05:09:53.689Z,2.90
2018-12-19T05:12:22.515Z,2.90
2018-12-19T05:14:51.419Z,2.80
2018-12-19T05:17:20.241Z,2.80
2018-12-19T05:19:49.352Z,2.80
2018-12-19T05:22:18.145Z,2.90
2018-12-19T05:24:47.356Z,2.80
2018-12-19T05:27:16.224Z,2.80
2018-12-19T05:29:45.025Z,2.80
2018-12-19T05:32:13.872Z,2.80
2018-12-19T05:34:42.782Z,2.90
2018-12-19T05:37:11.581Z,2.80
2018-12-19T05:39:40.381Z,2.80
2018-12-19T05:42:09.181Z,2.80
2018-12-19T05:44:37.983Z,2.80
2018-12-19T05:47:06.861Z,2.80
2018-12-19T05:49:35.977Z,2.90
2018-12-19T05:52:04.947Z,2.90
2018-12-19T05:54:34.272Z,2.90
2018-12-19T05:57:03.220Z,3.00
2018-12-19T05:59:32.052Z,3.10
2018-12-19T06:02:00.929Z,3.10
2018-12-19T06:04:29.880Z,3.10
2018-12-19T06:06:58.762Z,3.10
2018-12-19T06:09:27.671Z,3.10
2018-12-19T06:11:56.740Z,3.10
2018-12-19T06:14:25.612Z,3.10
2018-12-19T06:16:54.441Z,3.10
2018-12-19T06:19:23.301Z,3.10
2018-12-19T06:21:52.095Z,3.10
2018-12-19T06:24:21.168Z,3.20
2018-12-19T06:26:49.961Z,3.10
2018-12-19T06:29:18.847Z,3.10
2018-12-19T06:31:47.658Z,3.20
2018-12-19T06:34:17.566Z,3.20
2018-12-19T06:36:46.362Z,3.20
2018-12-19T06:39:15.401Z,3.20
2018-12-19T06:41:44.295Z,3.30
2018-12-19T06:44:13.226Z,3.30
2018-12-19T06:46:42.114Z,3.30
2018-12-19T06:49:10.909Z,3.30
2018-12-19T06:51:39.708Z,3.30
2018-12-19T06:54:08.692Z,3.30
2018-12-19T06:56:37.541Z,3.40
2018-12-19T06:59:06.433Z,3.40
2018-12-19T07:01:35.247Z,3.30
2018-12-19T07:04:04.222Z,3.30
2018-12-19T07:06:33.130Z,3.40
2018-12-19T07:09:02.094Z,3.40
2018-12-19T07:11:31.211Z,3.40
2018-12-19T07:14:00.025Z,3.40
2018-12-19T07:16:29.069Z,3.40
2018-12-19T07:18:58.192Z,3.40
2018-12-19T07:21:27.101Z,3.40
2018-12-19T07:23:57.019Z,3.40
2018-12-19T07:26:25.841Z,3.40
2018-12-19T07:28:54.873Z,3.40
2018-12-19T07:31:23.763Z,3.40
2018-12-19T07:33:52.592Z,3.40
2018-12-19T07:36:21.396Z,3.50
2018-12-19T07:38:50.210Z,3.60
2018-12-19T07:41:19.035Z,3.70
2018-12-19T07:43:47.997Z,3.70
2018-12-19T07:46:19.868Z,3.70
2018-12-19T07:48:47.714Z,3.80
2018-12-19T07:51:17.850Z,3.80
2018-12-19T07:53:46.663Z,3.80
2018-12-19T07:56:15.842Z,3.80
2018-12-19T07:58:45.681Z,3.90
2018-12-19T08:01:14.592Z,4.00
2018-12-19T08:03:43.409Z,4.00
2018-12-19T08:06:12.207Z,4.00
2018-12-19T08:08:41.141Z,4.00
2018-12-19T08:11:10.013Z,4.00
2018-12-19T08:13:38.949Z,4.00
2018-12-19T08:16:07.769Z,4.00
2018-12-19T08:18:36.589Z,4.10
2018-12-19T08:21:05.449Z,4.10
2018-12-19T08:23:35.202Z,4.10
2018-12-19T08:26:04.072Z,4.10
2018-12-19T08:28:33.137Z,4.10
2018-12-19T08:31:02.200Z,4.20
2018-12-19T08:33:31.509Z,4.20
2018-12-19T08:36:00.269Z,4.20
2018-12-19T08:38:29.110Z,4.30
2018-12-19T08:40:58.918Z,4.30
2018-12-19T08:43:27.860Z,4.40
2018-12-19T08:45:57.106Z,4.30
2018-12-19T08:48:25.893Z,4.40
2018-12-19T08:50:55.020Z,4.50
2018-12-19T08:53:23.789Z,4.40
2018-12-19T08:55:52.686Z,4.40
2018-12-19T08:58:21.584Z,4.50
2018-12-19T09:00:52.246Z,4.50
2018-12-19T09:03:21.097Z,4.50
2018-12-19T09:05:49.913Z,4.50
2018-12-19T09:08:18.899Z,4.60
2018-12-19T09:10:47.709Z,4.60
2018-12-19T09:13:16.637Z,4.60
2018-12-19T09:15:50.494Z,4.80
2018-12-19T09:18:20.464Z,5.00
2018-12-19T09:20:49.470Z,5.20
2018-12-19T09:23:18.288Z,5.30
2018-12-19T09:25:47.094Z,5.40
2018-12-19T09:28:15.912Z,5.50
2018-12-19T09:30:44.853Z,5.50
2018-12-19T09:33:13.633Z,5.50
2018-12-19T09:35:42.469Z,5.60
2018-12-19T09:38:19.878Z,5.70
2018-12-19T09:40:48.697Z,5.70
2018-12-19T09:43:17.502Z,5.70
2018-12-19T09:45:46.480Z,5.70
2018-12-19T09:48:15.433Z,5.70
2018-12-19T09:50:44.281Z,5.70
2018-12-19T09:53:13.454Z,5.70
2018-12-19T09:55:42.515Z,5.70
2018-12-19T09:58:11.312Z,5.70
2018-12-19T10:00:40.104Z,5.70
2018-12-19T10:03:08.910Z,5.70
2018-12-19T10:05:37.708Z,5.70
2018-12-19T10:08:06.505Z,5.70
2018-12-19T10:10:35.297Z,5.80
2018-12-19T10:13:04.338Z,5.90
2018-12-19T10:15:33.138Z,6.10
2018-12-19T10:18:01.982Z,6.30
2018-12-19T10:20:30.745Z,6.30
2018-12-19T10:22:59.626Z,6.40
2018-12-19T10:25:28.504Z,6.50
2018-12-19T10:27:57.569Z,6.50
2018-12-19T10:30:28.016Z,6.50
2018-12-19T10:32:57.702Z,6.50
2018-12-19T10:35:27.324Z,6.50
2018-12-19T10:37:56.254Z,6.50
2018-12-19T10:40:26.634Z,6.50
2018-12-19T10:42:56.138Z,6.50
2018-12-19T10:45:25.631Z,6.50
2018-12-19T10:47:55.044Z,6.50
2018-12-19T10:50:24.498Z,6.40
2018-12-19T10:52:54.514Z,6.40
2018-12-19T10:55:23.281Z,6.30
2018-12-19T10:57:52.454Z,6.30
2018-12-19T11:00:27.109Z,6.30
2018-12-19T11:02:56.565Z,6.20
2018-12-19T11:05:26.626Z,6.30
2018-12-19T11:07:55.417Z,6.30
2018-12-19T11:10:24.338Z,6.30
2018-12-19T11:12:53.175Z,6.30
2018-12-19T11:15:21.998Z,6.20
2018-12-19T11:17:50.813Z,6.30
2018-12-19T11:20:20.223Z,6.30
2018-12-19T11:22:50.078Z,6.40
2018-12-19T11:25:19.538Z,6.40
2018-12-19T11:27:48.941Z,6.50
2018-12-19T11:30:18.429Z,6.50
2018-12-19T11:32:47.229Z,6.50
2018-12-19T11:35:16.101Z,6.60
2018-12-19T11:37:44.861Z,6.70
2018-12-19T11:40:13.757Z,6.80
2018-12-19T11:42:42.566Z,6.80
2018-12-19T11:45:11.507Z,6.90
2018-12-19T11:47:40.288Z,6.90
2018-12-19T11:50:09.354Z,6.90
2018-12-19T11:52:38.838Z,7.00
2018-12-19T11:55:08.373Z,7.00
2018-12-19T11:57:37.883Z,7.00
2018-12-19T12:00:08.846Z,7.00
2018-12-19T12:02:37.671Z,7.00
2018-12-19T12:05:06.455Z,7.00
2018-12-19T12:07:35.705Z,7.00
2018-12-19T12:10:05.569Z,7.10
2018-12-19T12:12:34.369Z,7.10
2018-12-19T12:15:05.269Z,7.00
2018-12-19T12:17:35.787Z,7.00
2018-12-19T12:20:06.609Z,6.90
2018-12-19T12:22:35.413Z,6.80
2018-12-19T12:25:05.287Z,6.80
2018-12-19T12:27:34.162Z,6.80
2018-12-19T12:30:03.305Z,6.80
2018-12-19T12:32:32.168Z,6.70
2018-12-19T12:35:01.020Z,6.70
2018-12-19T12:37:30.019Z,6.70
2018-12-19T12:39:58.860Z,6.70
2018-12-19T12:42:27.669Z,6.70
2018-12-19T12:44:57.865Z,6.60
2018-12-19T12:47:26.872Z,6.70
2018-12-19T12:49:55.659Z,6.70
2018-12-19T12:52:24.477Z,6.70
2018-12-19T12:54:53.267Z,6.70
2018-12-19T12:57:22.066Z,6.70
2018-12-19T12:59:50.893Z,6.70
2018-12-19T13:02:19.713Z,6.80
2018-12-19T13:04:48.540Z,6.80
2018-12-19T13:07:17.334Z,6.90
2018-12-19T13:09:46.313Z,6.90
2018-12-19T13:12:15.068Z,6.90
2018-12-19T13:14:43.977Z,6.90
2018-12-19T13:17:13.070Z,6.90
2018-12-19T13:19:41.952Z,6.90
2018-12-19T13:22:12.365Z,6.90
2018-12-19T13:24:41.226Z,6.80
2018-12-19T13:27:10.345Z,6.80
2018-12-19T13:29:39.225Z,6.90
2018-12-19T13:32:08.673Z,7.00
2018-12-19T13:34:37.501Z,7.00
2018-12-19T13:37:06.383Z,7.10
2018-12-19T13:39:35.253Z,7.10
2018-12-19T13:42:05.765Z,7.20
2018-12-19T13:44:34.820Z,7.20
2018-12-19T13:47:03.749Z,7.10
2018-12-19T13:49:32.562Z,7.20
2018-12-19T13:52:01.394Z,7.20
2018-12-19T13:54:30.272Z,7.20
2018-12-19T13:56:59.154Z,7.10
2018-12-19T13:59:27.950Z,7.00
2018-12-19T14:01:56.806Z,7.00
2018-12-19T14:04:25.653Z,6.90
2018-12-19T14:06:54.437Z,6.90
2018-12-19T14:09:23.229Z,6.90
2018-12-19T14:11:52.253Z,6.80
2018-12-19T14:20:04.535Z,7.00
2018-12-19T14:22:33.451Z,7.00
2018-12-19T14:25:02.358Z,7.00
2018-12-19T14:27:31.286Z,7.00
2018-12-19T14:30:00.190Z,7.00
2018-12-19T14:32:29.067Z,7.00
2018-12-19T14:34:57.882Z,6.90
2018-12-19T14:37:26.713Z,6.80
2018-12-19T14:39:55.514Z,6.80
2018-12-19T14:42:24.441Z,6.80
2018-12-19T14:44:53.281Z,6.80
2018-12-19T14:47:22.102Z,6.80
2018-12-19T14:49:50.862Z,6.80
2018-12-19T14:52:19.685Z,6.90
2018-12-19T14:54:48.499Z,6.90
2018-12-19T14:57:17.516Z,6.90
2018-12-19T14:59:46.301Z,6.90
2018-12-19T15:02:15.104Z,6.80
2018-12-19T15:04:43.945Z,6.80
2018-12-19T15:07:12.776Z,6.80
2018-12-19T15:09:41.597Z,6.80
2018-12-19T15:12:10.539Z,6.90
2018-12-19T15:14:39.392Z,6.90
2018-12-19T15:17:13.865Z,6.90
2018-12-19T15:19:38.991Z,6.90
2018-12-19T15:22:07.813Z,6.90
2018-12-19T15:24:36.609Z,7.00
2018-12-19T15:27:05.628Z,7.00
2018-12-19T15:29:34.485Z,7.10
2018-12-19T15:32:03.288Z,7.20
2018-12-19T15:34:32.110Z,7.20
2018-12-19T15:37:02.254Z,7.20
2018-12-19T15:39:31.127Z,7.20
2018-12-19T15:41:59.930Z,7.20
2018-12-19T15:44:48.220Z,7.30
2018-12-19T15:47:17.032Z,7.30
2018-12-19T15:50:04.344Z,7.30
2018-12-19T15:52:33.214Z,7.30
2018-12-19T15:55:14.405Z,7.20
2018-12-19T15:57:43.499Z,7.20
2018-12-19T16:00:15.564Z,7.20
2018-12-19T16:02:44.615Z,7.10
2018-12-19T16:05:13.553Z,7.00
2018-12-19T16:07:46.346Z,7.00
2018-12-19T16:10:15.235Z,7.00
2018-12-19T16:15:47.018Z,6.90
2018-12-19T16:18:15.988Z,7.00
2018-12-19T16:20:44.846Z,7.00
2018-12-19T16:23:13.888Z,7.00
2018-12-19T16:25:42.839Z,7.00
2018-12-19T16:28:11.775Z,7.00
2018-12-19T16:30:40.601Z,7.00
2018-12-19T16:33:09.429Z,7.00
2018-12-19T16:35:38.206Z,7.00
2018-12-19T16:38:07.116Z,7.00
2018-12-19T16:40:35.953Z,7.00
2018-12-19T16:43:04.850Z,6.90
2018-12-19T16:45:33.812Z,6.90
2018-12-19T16:48:14.508Z,6.90
2018-12-19T16:50:43.422Z,6.80
2018-12-19T16:53:12.370Z,6.80
2018-12-19T16:55:41.437Z,6.80
2018-12-19T16:58:10.256Z,6.70
2018-12-19T17:00:39.298Z,6.60
2018-12-19T17:03:08.655Z,6.40
2018-12-19T17:05:41.662Z,6.50
2018-12-19T17:08:18.470Z,6.60
2018-12-19T17:10:51.239Z,6.40
2018-12-19T17:13:20.147Z,6.30
2018-12-19T17:15:49.039Z,6.30
2018-12-19T17:18:18.070Z,6.20
2018-12-19T17:20:46.867Z,6.20
2018-12-19T17:23:15.693Z,6.10
2018-12-19T17:25:44.491Z,6.00
2018-12-19T17:28:13.278Z,5.90
2018-12-19T17:30:42.102Z,5.80
2018-12-19T17:33:10.885Z,5.80
2018-12-19T17:35:39.697Z,5.80
2018-12-19T17:38:08.489Z,5.90
2018-12-19T17:40:37.309Z,5.80
2018-12-19T17:43:06.227Z,5.80
2018-12-19T17:45:35.041Z,5.80
2018-12-19T17:48:03.913Z,5.80
2018-12-19T17:50:32.862Z,5.70
2018-12-19T17:53:01.662Z,5.70
2018-12-19T17:55:30.473Z,5.70
2018-12-19T17:57:59.290Z,5.70
2018-12-19T18:00:28.189Z,5.70
2018-12-19T18:02:56.982Z,5.60
2018-12-19T18:05:25.793Z,5.60
2018-12-19T18:07:54.576Z,5.50
2018-12-19T18:10:23.406Z,5.50
2018-12-19T18:12:52.206Z,5.50
2018-12-19T18:15:21.017Z,5.60
2018-12-19T18:17:49.942Z,5.60
2018-12-19T18:20:18.792Z,5.60
2018-12-19T18:22:47.606Z,5.70
2018-12-19T18:25:16.590Z,5.70
2018-12-19T18:27:45.380Z,5.70
2018-12-19T18:30:14.341Z,5.70
2018-12-19T18:32:43.168Z,5.70
2018-12-19T18:35:12.059Z,5.70
2018-12-19T18:37:40.929Z,5.70
2018-12-19T18:40:09.790Z,5.70
2018-12-19T18:42:38.584Z,5.70
2018-12-19T18:45:11.915Z,5.70
2018-12-19T18:47:38.347Z,5.80
2018-12-19T18:50:07.725Z,5.90
2018-12-19T18:52:36.756Z,5.90
2018-12-19T18:55:06.091Z,6.00
2018-12-19T18:57:34.920Z,6.00
2018-12-19T19:00:05.427Z,6.10
2018-12-19T19:02:34.289Z,6.10
2018-12-19T19:05:03.647Z,6.10
2018-12-19T19:07:32.677Z,6.20
2018-12-19T19:10:01.691Z,6.20
2018-12-19T19:12:30.475Z,6.20
2018-12-19T19:14:59.434Z,6.20
2018-12-19T19:17:28.316Z,6.30
2018-12-19T19:19:57.370Z,6.20
2018-12-19T19:22:26.262Z,6.10
2018-12-19T19:24:55.077Z,6.10
2018-12-19T19:27:24.013Z,6.10
2018-12-19T19:29:52.930Z,6.10
2018-12-19T19:32:21.933Z,6.10
2018-12-19T19:34:50.760Z,6.00
2018-12-19T19:37:19.714Z,6.00
2018-12-19T19:39:48.517Z,5.90
2018-12-19T19:42:17.338Z,5.90
2018-12-19T19:44:46.194Z,6.00
2018-12-19T19:47:16.263Z,5.90
2018-12-19T19:49:45.169Z,5.90
2018-12-19T23:03:48.468Z,5.90
2018-12-19T23:06:18.142Z,5.90
2018-12-19T23:08:49.008Z,5.90
